createdAt,value
2023-01-15T00:08:24.732Z,19.36
2023-01-15T00:18:32.760Z,20.62
2023-01-15T00:28:40.831Z,20.14
2023-01-15T00:38:48.965Z,22.56
2023-01-15T00:48:57.027Z,18.52
2023-01-15T00:59:05.122Z,19.7
2023-01-15T01:09:13.853Z,21.12
2023-01-15T01:19:22.436Z,20.54
2023-01-15T01:29:30.829Z,21.03
2023-01-15T01:39:39.025Z,21.18
2023-01-15T01:49:47.290Z,20.09
2023-01-15T01:59:55.350Z,20.98
2023-01-15T02:10:03.150Z,20.68
2023-01-15T02:20:11.429Z,20.1
2023-01-15T02:30:19.617Z,20.63
2023-01-15T02:40:27.752Z,20.12
2023-01-15T02:50:35.769Z,21.23
2023-01-15T03:00:43.638Z,23.32
2023-01-15T03:10:51.477Z,21.12
2023-01-15T03:20:59.090Z,19.99
2023-01-15T03:31:06.899Z,19.42
2023-01-15T03:41:15.025Z,18.1
2023-01-15T03:51:23.108Z,17.19
2023-01-15T04:01:31.389Z,16.74
2023-01-15T04:11:39.309Z,19.81
2023-01-15T04:21:47.459Z,17.91
2023-01-15T04:31:56.717Z,18.23
2023-01-15T04:42:04.610Z,19.23
2023-01-15T04:52:12.806Z,20.95
2023-01-15T05:02:20.428Z,16.86
2023-01-15T05:12:28.344Z,17.26
2023-01-15T05:22:36.305Z,12.94
2023-01-15T05:32:44.412Z,14.8
2023-01-15T05:42:52.542Z,17.04
2023-01-15T05:53:00.406Z,18.25
2023-01-15T06:03:08.404Z,16.18
2023-01-15T06:13:16.433Z,17.95
2023-01-15T06:23:24.488Z,16.69
2023-01-15T06:33:32.489Z,14.84
2023-01-15T06:43:40.502Z,11.57
2023-01-15T06:53:52.404Z,11.49
2023-01-15T07:03:51.447Z,12.77
2023-01-15T07:14:01.821Z,8.74
2023-01-15T07:23:59.930Z,8.06
2023-01-15T07:34:07.871Z,6.51
2023-01-15T07:44:15.709Z,7.11
2023-01-15T07:54:23.831Z,6.5
2023-01-15T08:04:31.681Z,6.81
2023-01-15T08:14:39.868Z,7.58
2023-01-15T08:24:47.992Z,6.84
2023-01-15T08:34:56.136Z,7.36
2023-01-15T08:45:04.253Z,8.05
2023-01-15T08:55:12.340Z,9.61
2023-01-15T09:05:21.534Z,10.48
2023-01-15T09:15:32.590Z,10.28
2023-01-15T09:25:33.359Z,12.66
2023-01-15T09:35:41.516Z,15.71
2023-01-15T09:45:49.778Z,15.51
2023-01-15T09:55:57.807Z,13.43
2023-01-15T10:06:06.884Z,14.29
2023-01-15T10:16:06.373Z,13.21
2023-01-15T10:26:14.408Z,12.48
2023-01-15T10:36:26.958Z,13.42
2023-01-15T10:46:35.078Z,11.62
2023-01-15T10:56:37.604Z,12.36
2023-01-15T11:06:48.431Z,10.39
2023-01-15T11:16:44.315Z,8.46
2023-01-15T11:26:41.540Z,9.86
2023-01-15T11:36:47.427Z,8.4
2023-01-15T11:46:46.515Z,9.97
2023-01-15T11:56:59.101Z,13.51
2023-01-15T12:07:01.005Z,10.3
2023-01-15T12:16:59.104Z,9.58
2023-01-15T12:27:09.149Z,8.29
2023-01-15T12:37:17.882Z,6.77
2023-01-15T12:47:29.769Z,9.02
2023-01-15T12:57:28.234Z,10.64
2023-01-15T13:07:48.132Z,8.87
2023-01-15T13:17:40.048Z,9.59
2023-01-15T13:27:48.221Z,10.58
2023-01-15T13:38:01.077Z,10.18
2023-01-15T13:48:17.756Z,10.19
2023-01-15T13:58:10.904Z,10.68
2023-01-15T14:08:16.871Z,11.04
2023-01-15T14:18:59.000Z,12.3
2023-01-15T14:28:28.596Z,11.69
2023-01-15T14:38:33.477Z,8.34
2023-01-15T14:48:35.931Z,11.54
2023-01-15T14:58:48.044Z,10.66
2023-01-15T15:08:49.162Z,7.96
2023-01-15T15:18:43.429Z,4.94
2023-01-15T15:28:48.279Z,3.46
2023-01-15T15:38:57.725Z,5.15
2023-01-15T15:59:03.331Z,3.73
2023-01-15T16:09:24.795Z,4.32
2023-01-15T16:19:19.178Z,5.44
2023-01-15T16:29:19.880Z,5.76
2023-01-15T16:39:15.590Z,8.38
2023-01-15T16:49:08.940Z,4.07
2023-01-15T16:59:22.485Z,4.21
2023-01-15T17:09:13.382Z,4.28
2023-01-15T17:19:17.395Z,4.36
2023-01-15T17:29:20.408Z,6.53
2023-01-15T17:39:22.020Z,6.23
2023-01-15T17:49:22.169Z,5.98
2023-01-15T17:59:21.766Z,6.09
2023-01-15T18:09:37.771Z,3.6
2023-01-15T18:29:40.833Z,5.43
2023-01-15T18:49:55.651Z,6.29
2023-01-15T18:59:51.106Z,4.03
2023-01-15T19:09:56.168Z,3.37
2023-01-15T19:20:03.003Z,5.35
2023-01-15T19:30:09.062Z,4.3
2023-01-15T19:40:08.401Z,7.33
2023-01-15T19:50:16.552Z,11.34
2023-01-15T20:00:18.369Z,8.23
2023-01-15T20:10:35.170Z,10.09
2023-01-15T20:20:27.922Z,6.26
2023-01-15T20:30:40.594Z,11.57
2023-01-15T20:40:40.773Z,10.24
2023-01-15T20:50:39.005Z,10.96
2023-01-15T21:00:47.887Z,9.3
2023-01-15T21:10:56.046Z,10.68
2023-01-15T21:21:04.014Z,11.56
2023-01-15T21:31:11.926Z,5.81
2023-01-15T21:41:19.872Z,7.26
2023-01-15T21:51:29.242Z,6.22
2023-01-15T22:01:38.775Z,7.35
2023-01-15T22:11:46.556Z,6.59
2023-01-15T22:21:54.533Z,4.95
2023-01-15T22:32:02.638Z,5.98
2023-01-15T22:42:10.565Z,10.82
2023-01-15T22:52:18.428Z,11.54
2023-01-15T23:02:26.217Z,12
2023-01-15T23:12:33.979Z,11.43
2023-01-15T23:22:41.888Z,14.35
2023-01-15T23:32:49.681Z,7.74
2023-01-15T23:42:57.605Z,5.69
2023-01-15T23:53:05.700Z,5.8
